Time;durP1;ratioP1;P1;durP2;ratioP2;P2;SDS_P1;SDS_P2;PMS_P1;PMS_P2;Temp;Humidity;BMP_temperature;BMP_pressure;BME280_temperature;BME280_humidity;BME280_pressure;Samples;Min_cycle;Max_cycle;Signal;HPM_P1;HPM_P2
2021/03/05 00:01:00;;;;;;;0.52;0.10;;;;;;;-1.99;46.57;102456.97;5038675;28;20055;-70
2021/03/05 00:03:25;;;;;;;2.20;0.28;;;;;;;-1.87;46.31;102459.97;5037098;28;20913;-71
2021/03/05 00:05:52;;;;;;;0.70;0.08;;;;;;;-2.08;46.64;102457.50;5035232;28;20132;-70
2021/03/05 00:08:18;;;;;;;0.43;0.10;;;;;;;-1.78;45.94;102463.72;5036537;28;20039;-70
2021/03/05 00:10:45;;;;;;;1.10;0.05;;;;;;;-1.85;46.25;102467.72;5035221;28;20476;-70
2021/03/05 00:13:11;;;;;;;0.57;0.10;;;;;;;-1.68;45.46;102471.78;5037263;28;20028;-70
2021/03/05 00:15:40;;;;;;;1.67;0.10;;;;;;;-1.75;45.48;102472.41;5041991;28;20064;-70
2021/03/05 00:18:06;;;;;;;6.55;0.30;;;;;;;-1.83;45.81;102471.22;5037432;28;20033;-71
2021/03/05 00:20:34;;;;;;;1.40;0.17;;;;;;;-1.76;45.74;102473.19;5037695;28;20026;-70
2021/03/05 00:23:00;;;;;;;8.57;0.60;;;;;;;-1.78;45.76;102477.41;5026832;28;20029;-70
2021/03/05 00:25:26;;;;;;;1.85;0.10;;;;;;;-1.92;45.72;102476.88;5039396;28;20041;-69
2021/03/05 00:27:52;;;;;;;0.32;0.00;;;;;;;-1.99;45.94;102485.16;5040460;28;20041;-70
2021/03/05 00:30:19;;;;;;;0.82;0.30;;;;;;;-2.06;46.07;102483.19;5040407;28;20044;-70
2021/03/05 00:32:45;;;;;;;2.50;0.17;;;;;;;-2.18;46.30;102485.25;5037920;28;20548;-70
2021/03/05 00:35:13;;;;;;;3.72;0.15;;;;;;;-2.27;46.23;102488.34;5046806;28;20159;-70
2021/03/05 00:37:40;;;;;;;0.63;0.10;;;;;;;-2.32;46.60;102493.28;5038719;28;20026;-70
2021/03/05 00:40:09;;;;;;;2.28;0.10;;;;;;;-2.45;46.87;102499.63;5040156;28;20028;-71
2021/03/05 00:42:34;;;;;;;0.22;0.10;;;;;;;-2.52;46.91;102507.84;5035329;28;20068;-71
2021/03/05 00:45:00;;;;;;;1.02;0.10;;;;;;;-2.56;46.97;102505.09;5043645;28;20444;-70
2021/03/05 00:47:25;;;;;;;0.65;0.10;;;;;;;-2.56;47.04;102507.66;5036709;28;20059;-70
2021/03/05 00:49:52;;;;;;;0.45;0.30;;;;;;;-2.58;47.26;102511.84;5028004;28;20087;-70
2021/03/05 00:52:17;;;;;;;1.20;0.00;;;;;;;-2.63;47.20;102503.97;5038272;28;20037;-69
2021/03/05 00:54:43;;;;;;;4.07;0.20;;;;;;;-2.78;47.56;102511.03;5037848;28;20308;-70
2021/03/05 00:57:09;;;;;;;2.35;0.20;;;;;;;-2.78;47.86;102517.03;5046705;28;20048;-70
2021/03/05 00:59:34;;;;;;;0.98;0.10;;;;;;;-2.78;47.80;102517.03;5038354;28;20083;-70
2021/03/05 01:02:00;;;;;;;0.43;0.10;;;;;;;-2.67;47.72;102518.38;5043904;28;20153;-70
2021/03/05 01:04:25;;;;;;;2.05;0.30;;;;;;;-2.55;48.04;102523.09;5042172;28;20048;-70
2021/03/05 01:06:53;;;;;;;1.73;0.32;;;;;;;-2.38;48.21;102516.13;5052645;28;20037;-70
2021/03/05 01:09:22;;;;;;;2.45;0.20;;;;;;;-2.26;48.38;102526.84;5021782;28;20056;-69
2021/03/05 01:11:49;;;;;;;6.07;0.20;;;;;;;-2.17;48.53;102520.34;5023497;28;20037;-70
2021/03/05 01:14:14;;;;;;;0.43;0.10;;;;;;;-1.97;48.14;102521.97;5027345;28;20028;-69
2021/03/05 01:16:40;;;;;;;5.15;0.82;;;;;;;-2.07;48.62;102519.84;5040025;28;20572;-72
2021/03/05 01:19:09;;;;;;;0.50;0.10;;;;;;;-1.96;48.44;102517.72;5031649;28;20041;-70
2021/03/05 01:21:34;;;;;;;2.38;0.20;;;;;;;-2.13;48.49;102524.78;5041646;28;20117;-70
2021/03/05 01:24:00;;;;;;;1.50;0.30;;;;;;;-1.93;47.99;102528.06;5043503;28;20044;-70
2021/03/05 01:26:26;;;;;;;1.50;0.30;;;;;;;-1.96;48.28;102525.41;5043254;28;20532;-69
2021/03/05 01:28:52;;;;;;;6.00;0.77;;;;;;;-1.88;47.73;102524.88;5040870;28;20047;-70
2021/03/05 01:31:17;;;;;;;4.63;0.22;;;;;;;-1.77;47.54;102527.00;5042422;28;20116;-70
2021/03/05 01:33:43;;;;;;;4.65;0.20;;;;;;;-1.72;47.27;102525.47;5045453;28;20045;-70
2021/03/05 01:36:09;;;;;;;2.70;0.40;;;;;;;-1.97;48.27;102533.91;5042092;28;20047;-70
2021/03/05 01:38:36;;;;;;;6.53;0.57;;;;;;;-1.82;47.64;102522.56;5036294;28;20079;-70
2021/03/05 01:41:02;;;;;;;6.07;0.30;;;;;;;-1.81;47.37;102521.72;5041153;28;20492;-70
2021/03/05 01:43:31;;;;;;;1.35;0.30;;;;;;;-1.63;46.82;102513.00;5027672;28;20037;-70
2021/03/05 01:45:57;;;;;;;3.67;0.10;;;;;;;-1.51;46.54;102523.72;5039325;28;20483;-70
2021/03/05 01:48:23;;;;;;;1.83;0.10;;;;;;;-1.73;46.75;102518.56;5038407;28;20039;-69
2021/03/05 01:50:48;;;;;;;2.85;0.32;;;;;;;-1.67;46.46;102521.38;5039113;28;20043;-69
2021/03/05 01:53:14;;;;;;;3.13;0.20;;;;;;;-1.88;46.68;102516.31;5036742;28;20029;-70
2021/03/05 01:55:40;;;;;;;3.83;0.35;;;;;;;-1.79;46.62;102516.69;5036223;28;20451;-71
2021/03/05 01:58:05;;;;;;;2.15;0.20;;;;;;;-1.90;46.30;102516.25;5036511;28;20082;-70
2021/03/05 02:00:45;;;;;;;0.77;0.13;;;;;;;-1.55;45.79;102526.06;5040519;28;20021;-70
2021/03/05 02:03:11;;;;;;;0.85;0.30;;;;;;;-1.53;45.41;102522.78;5040179;28;20044;-71
2021/03/05 02:05:38;;;;;;;1.67;0.10;;;;;;;-1.56;45.78;102530.34;5039667;28;20025;-70
2021/03/05 02:08:08;;;;;;;6.22;0.10;;;;;;;-1.59;45.43;102527.66;5043298;28;20033;-70
2021/03/05 02:10:33;;;;;;;1.60;0.20;;;;;;;-1.82;45.98;102534.50;5039972;28;20030;-70
2021/03/05 02:12:59;;;;;;;1.30;0.20;;;;;;;-1.68;45.71;102533.31;5039942;28;20551;-70
2021/03/05 02:15:26;;;;;;;1.42;0.17;;;;;;;-1.81;45.93;102537.09;5038093;28;20091;-70
2021/03/05 02:18:14;;;;;;;4.30;0.45;;;;;;;-1.90;46.25;102539.31;5039206;28;20033;-69
2021/03/05 02:20:43;;;;;;;3.70;0.30;;;;;;;-1.85;46.07;102540.38;5038783;28;20025;-71
2021/03/05 02:23:46;;;;;;;2.28;0.20;;;;;;;-1.91;46.10;102550.41;5039578;28;20033;-70
2021/03/05 02:26:30;;;;;;;6.25;0.20;;;;;;;-1.88;45.85;102547.94;5024763;28;20045;-70
2021/03/05 02:29:21;;;;;;;0.85;0.20;;;;;;;-1.86;45.92;102548.03;5061120;28;20041;-70
2021/03/05 02:31:53;;;;;;;1.90;0.10;;;;;;;-1.88;45.88;102553.06;5039393;28;20125;-70
2021/03/05 02:34:33;;;;;;;3.30;0.40;;;;;;;-2.15;46.42;102540.06;5039789;28;20160;-70
2021/03/05 02:37:00;;;;;;;2.75;0.10;;;;;;;-1.94;46.06;102552.84;5043098;28;20508;-69
2021/03/05 02:39:49;;;;;;;3.75;0.17;;;;;;;-1.73;45.16;102550.25;5041969;28;20037;-70
2021/03/05 02:42:26;;;;;;;5.45;0.30;;;;;;;-1.88;45.60;102547.94;5042108;28;20053;-72
2021/03/05 02:45:00;;;;;;;1.27;0.03;;;;;;;-2.06;46.04;102549.81;5037884;28;20195;-70
2021/03/05 02:47:30;;;;;;;1.20;0.30;;;;;;;-1.95;45.61;102551.09;5038697;28;20033;-71
2021/03/05 02:49:55;;;;;;;1.98;0.20;;;;;;;-1.97;45.94;102544.19;5055138;28;20128;-69
2021/03/05 02:52:21;;;;;;;3.92;0.10;;;;;;;-1.93;45.77;102557.16;5034955;28;20495;-69
2021/03/05 02:54:57;;;;;;;5.18;1.02;;;;;;;-2.02;46.20;102559.38;5039537;28;20049;-70
2021/03/05 02:57:27;;;;;;;2.28;0.25;;;;;;;-2.07;46.02;102563.41;5026632;28;20033;-70
2021/03/05 02:59:54;;;;;;;0.35;0.10;;;;;;;-2.14;45.94;102572.53;5039049;28;20038;-70
2021/03/05 03:02:25;;;;;;;0.25;0.22;;;;;;;-2.17;45.85;102576.69;5034837;28;20045;-70
2021/03/05 03:04:53;;;;;;;4.47;0.20;;;;;;;-2.26;46.04;102572.06;5039609;28;20062;-70
2021/03/05 03:07:20;;;;;;;1.33;0.10;;;;;;;-2.29;46.33;102571.94;5044034;28;20041;-70
2021/03/05 03:09:46;;;;;;;0.30;0.10;;;;;;;-2.39;46.64;102570.69;5040183;28;20740;-69
2021/03/05 03:12:15;;;;;;;2.70;0.10;;;;;;;-2.55;46.61;102573.44;5037990;28;20041;-70
2021/03/05 03:14:42;;;;;;;1.42;0.40;;;;;;;-2.64;46.94;102572.22;5037336;28;20071;-71
2021/03/05 03:17:09;;;;;;;3.97;0.20;;;;;;;-2.72;47.19;102576.16;5033900;28;20076;-70
2021/03/05 03:19:38;;;;;;;0.50;0.00;;;;;;;-2.78;46.83;102581.03;5039337;28;20037;-69
2021/03/05 03:22:05;;;;;;;0.73;0.10;;;;;;;-2.89;47.37;102583.13;5044320;28;20033;-69
2021/03/05 03:24:32;;;;;;;3.63;0.20;;;;;;;-2.93;47.59;102585.47;5044158;28;20033;-69
2021/03/05 03:26:58;;;;;;;0.93;0.10;;;;;;;-2.89;47.51;102582.25;5039065;28;20056;-69
2021/03/05 03:29:24;;;;;;;0.40;0.30;;;;;;;-3.02;47.34;102583.41;5040931;28;20029;-70
2021/03/05 03:31:50;;;;;;;1.42;0.20;;;;;;;-3.01;47.91;102585.13;5035977;28;20042;-70
2021/03/05 03:34:16;;;;;;;1.88;0.20;;;;;;;-3.09;48.24;102586.50;5044627;28;20052;-70
2021/03/05 03:36:42;;;;;;;5.28;0.10;;;;;;;-3.09;48.49;102589.06;5023181;28;20052;-70
2021/03/05 03:39:09;;;;;;;5.18;0.17;;;;;;;-3.09;48.61;102595.03;5041601;28;20079;-69
2021/03/05 03:41:37;;;;;;;2.50;0.20;;;;;;;-3.06;48.27;102595.16;5035559;28;20042;-70
2021/03/05 03:44:05;;;;;;;2.78;0.10;;;;;;;-2.99;47.93;102590.31;5038740;28;20024;-69
2021/03/05 03:46:32;;;;;;;1.45;0.20;;;;;;;-3.10;48.24;102598.38;5042151;28;20036;-69
2021/03/05 03:49:05;;;;;;;0.57;0.08;;;;;;;-3.13;48.10;102599.97;5038566;28;20064;-70
2021/03/05 03:51:33;;;;;;;0.50;0.10;;;;;;;-3.15;47.94;102610.09;5037066;28;20075;-69
2021/03/05 03:54:00;;;;;;;0.85;0.10;;;;;;;-3.25;48.06;102618.16;5038306;28;20041;-69
2021/03/05 03:56:29;;;;;;;3.58;0.25;;;;;;;-3.21;48.13;102611.50;5044828;28;20035;-69
2021/03/05 03:58:56;;;;;;;1.92;0.20;;;;;;;-3.28;48.20;102612.91;5035580;28;20107;-69
2021/03/05 04:01:24;;;;;;;2.13;0.10;;;;;;;-3.19;48.20;102608.22;5042454;28;20029;-69
2021/03/05 04:03:53;;;;;;;1.85;0.30;;;;;;;-3.28;48.00;102616.34;5044965;28;20112;-69
2021/03/05 04:06:24;;;;;;;2.05;0.10;;;;;;;-3.34;48.16;102622.88;5048217;28;20033;-69
2021/03/05 04:08:51;;;;;;;4.60;0.43;;;;;;;-3.34;47.87;102630.53;5040800;28;20033;-69
2021/03/05 04:11:18;;;;;;;1.98;0.20;;;;;;;-3.43;48.15;102630.97;5042473;28;20055;-69
2021/03/05 04:13:45;;;;;;;0.45;0.00;;;;;;;-3.50;48.21;102637.50;5040844;28;20608;-69
2021/03/05 04:16:11;;;;;;;2.38;0.25;;;;;;;-3.50;48.43;102649.41;5039802;28;20029;-69
2021/03/05 04:18:38;;;;;;;1.75;0.20;;;;;;;-3.56;48.30;102652.56;5037879;28;20108;-69
2021/03/05 04:21:12;;;;;;;1.10;0.10;;;;;;;-3.58;48.16;102654.19;5041173;28;20128;-70
2021/03/05 04:23:38;;;;;;;0.35;0.10;;;;;;;-3.65;48.33;102657.25;5036553;28;20029;-69
2021/03/05 04:26:03;;;;;;;1.95;0.10;;;;;;;-3.57;48.51;102655.91;5043061;28;20040;-70
2021/03/05 04:28:29;;;;;;;0.85;0.10;;;;;;;-3.60;48.35;102654.91;5038692;28;20432;-69
2021/03/05 04:30:56;;;;;;;0.50;0.22;;;;;;;-3.64;47.95;102659.00;5044786;28;20052;-69
2021/03/05 04:33:21;;;;;;;6.30;1.55;;;;;;;-3.73;48.11;102666.22;5042032;28;20055;-69
2021/03/05 04:35:47;;;;;;;2.53;0.22;;;;;;;-3.72;48.20;102665.41;5042763;28;20922;-69
2021/03/05 04:38:12;;;;;;;0.88;0.28;;;;;;;-3.73;48.00;102664.53;5047297;28;20108;-69
2021/03/05 04:40:38;;;;;;;4.80;0.40;;;;;;;-3.75;48.05;102662.72;5046244;28;20044;-70
2021/03/05 04:43:04;;;;;;;3.38;0.60;;;;;;;-3.74;47.95;102667.00;5045431;28;20549;-70
2021/03/05 04:45:29;;;;;;;2.80;0.40;;;;;;;-3.82;48.11;102664.09;5047116;28;20037;-70
2021/03/05 04:47:54;;;;;;;6.65;0.43;;;;;;;-3.81;47.95;102664.97;5042936;28;20048;-70
2021/03/05 04:50:20;;;;;;;2.72;0.30;;;;;;;-3.82;47.86;102673.44;5042990;28;20055;-70
2021/03/05 04:52:45;;;;;;;3.90;0.20;;;;;;;-3.84;47.77;102680.16;5023744;28;20052;-70
2021/03/05 04:55:11;;;;;;;2.63;0.30;;;;;;;-3.82;47.46;102687.09;5042514;28;20037;-70
2021/03/05 04:57:37;;;;;;;4.97;0.28;;;;;;;-3.66;47.17;102675.94;5026987;28;20048;-70
2021/03/05 05:00:05;;;;;;;2.20;0.17;;;;;;;-3.78;47.19;102680.47;5046738;28;20063;-70
2021/03/05 05:02:30;;;;;;;3.75;0.25;;;;;;;-3.86;47.18;102684.31;5042788;28;20098;-70
2021/03/05 05:04:56;;;;;;;0.73;0.20;;;;;;;-3.86;47.08;102687.75;5059469;28;20037;-70
2021/03/05 05:07:21;;;;;;;5.22;0.20;;;;;;;-3.91;47.25;102690.06;5040355;28;20056;-70
2021/03/05 05:09:47;;;;;;;1.75;0.43;;;;;;;-3.93;47.40;102691.66;5046441;28;20496;-70
2021/03/05 05:12:12;;;;;;;2.38;0.10;;;;;;;-3.90;47.33;102690.94;5029002;28;20040;-70
2021/03/05 05:14:37;;;;;;;0.52;0.13;;;;;;;-3.88;47.10;102699.56;5046378;28;20079;-70
2021/03/05 05:17:03;;;;;;;2.10;0.20;;;;;;;-3.79;47.04;102699.13;5047256;28;20040;-70
2021/03/05 05:19:29;;;;;;;0.38;0.00;;;;;;;-3.80;46.75;102697.41;5040580;28;20040;-69
2021/03/05 05:21:55;;;;;;;1.10;0.20;;;;;;;-3.83;46.54;102703.25;5044203;28;20127;-69
2021/03/05 05:24:20;;;;;;;1.40;0.10;;;;;;;-3.98;46.84;102705.91;5020778;28;20037;-70
2021/03/05 05:26:46;;;;;;;2.25;0.20;;;;;;;-3.94;46.79;102710.38;5022115;28;20048;-70
2021/03/05 05:29:11;;;;;;;1.55;0.08;;;;;;;-3.83;46.22;102712.56;5040986;28;20191;-70
2021/03/05 05:31:37;;;;;;;5.25;0.20;;;;;;;-3.97;46.47;102707.66;5038380;28;20025;-70
2021/03/05 05:34:02;;;;;;;3.92;0.20;;;;;;;-4.04;46.73;102715.81;5044752;28;20462;-70
2021/03/05 05:36:28;;;;;;;1.45;0.20;;;;;;;-4.03;46.68;102707.38;5039533;28;20374;-70
2021/03/05 05:38:54;;;;;;;8.75;0.32;;;;;;;-4.01;46.56;102713.44;5037652;28;20044;-70
2021/03/05 05:41:23;;;;;;;1.15;0.10;;;;;;;-3.95;46.55;102708.59;5039459;28;20029;-70
2021/03/05 05:43:48;;;;;;;0.70;0.15;;;;;;;-3.95;46.54;102723.94;5041403;28;20044;-70
2021/03/05 05:46:17;;;;;;;0.77;0.10;;;;;;;-3.86;46.45;102720.09;5037767;28;20408;-69
2021/03/05 05:48:46;;;;;;;1.25;0.77;;;;;;;-3.98;46.48;102723.78;5041325;28;20025;-69
2021/03/05 05:51:22;;;;;;;0.25;0.00;;;;;;;-3.99;46.40;102727.13;5041727;28;20059;-69
2021/03/05 05:53:48;;;;;;;1.23;0.10;;;;;;;-3.97;46.30;102722.97;5045451;28;20796;-69
2021/03/05 05:56:18;;;;;;;0.20;0.08;;;;;;;-4.08;46.58;102731.78;5039653;28;20037;-69
2021/03/05 05:58:44;;;;;;;0.45;0.00;;;;;;;-4.05;46.77;102721.72;5043574;28;20410;-69
2021/03/05 06:01:10;;;;;;;0.65;0.25;;;;;;;-4.07;46.84;102722.47;5038203;28;20029;-69
2021/03/05 06:03:37;;;;;;;3.28;0.20;;;;;;;-3.98;46.72;102722.91;5042250;28;20060;-70
2021/03/05 06:06:03;;;;;;;3.03;0.20;;;;;;;-4.03;46.72;102729.44;5039761;28;20861;-69
2021/03/05 06:08:29;;;;;;;1.10;0.20;;;;;;;-4.03;46.81;102735.47;5038514;28;20087;-71
2021/03/05 06:10:55;;;;;;;4.22;0.20;;;;;;;-4.02;46.99;102737.19;5042756;28;20032;-71
2021/03/05 06:13:24;;;;;;;0.73;0.10;;;;;;;-4.02;47.22;102736.34;5046621;28;20047;-69
2021/03/05 06:16:12;;;;;;;1.83;0.10;;;;;;;-3.89;46.81;102739.56;5044739;28;20033;-69
2021/03/05 06:18:38;;;;;;;1.30;0.10;;;;;;;-3.87;46.65;102737.09;5021565;28;20117;-69
2021/03/05 06:21:04;;;;;;;0.45;0.10;;;;;;;-3.87;47.09;102747.31;5045256;28;20104;-69
2021/03/05 06:23:29;;;;;;;2.08;0.32;;;;;;;-3.79;47.80;102740.03;5037234;28;20056;-69
2021/03/05 06:25:59;;;;;;;6.75;0.47;;;;;;;-3.57;46.89;102736.84;5054901;28;20040;-69
2021/03/05 06:28:25;;;;;;;2.55;0.30;;;;;;;-3.68;46.70;102741.41;5038462;28;20063;-69
2021/03/05 06:30:51;;;;;;;1.70;0.30;;;;;;;-3.63;46.83;102736.53;5040284;28;20045;-69
2021/03/05 06:33:27;;;;;;;3.15;0.30;;;;;;;-3.59;46.98;102744.41;5026499;28;20025;-69
2021/03/05 06:35:54;;;;;;;6.45;0.77;;;;;;;-3.56;47.10;102743.69;5041265;28;20395;-70
2021/03/05 06:38:45;;;;;;;1.50;0.20;;;;;;;-3.51;46.91;102745.69;5043226;28;20045;-70
2021/03/05 06:41:24;;;;;;;1.30;0.33;;;;;;;-3.43;46.89;102751.16;5028616;28;20035;-69
2021/03/05 06:43:52;;;;;;;1.27;0.25;;;;;;;-3.35;46.75;102754.09;5040490;28;20295;-70
2021/03/05 06:46:40;;;;;;;4.40;0.30;;;;;;;-3.15;46.60;102753.34;5045740;28;20041;-69
2021/03/05 06:49:09;;;;;;;1.95;0.35;;;;;;;-3.10;46.34;102749.31;5038216;28;20036;-69
2021/03/05 06:51:34;;;;;;;1.70;1.05;;;;;;;-3.16;46.06;102761.84;5043405;28;20029;-70
2021/03/05 06:54:04;;;;;;;8.45;0.47;;;;;;;-3.09;45.96;102761.31;5040985;28;20033;-69
2021/03/05 06:56:32;;;;;;;4.53;0.47;;;;;;;-3.02;46.25;102756.50;5041344;28;20035;-70
2021/03/05 06:59:01;;;;;;;1.83;0.30;;;;;;;-2.86;46.42;102761.50;5042201;28;20037;-70
2021/03/05 07:01:27;;;;;;;2.13;0.30;;;;;;;-2.68;46.21;102772.56;5027844;28;20037;-71
2021/03/05 07:04:10;;;;;;;2.15;0.40;;;;;;;-2.40;46.14;102765.25;5045197;28;20055;-69
2021/03/05 07:06:36;;;;;;;3.80;1.02;;;;;;;-1.84;45.33;102760.00;5057666;28;20040;-71
2021/03/05 07:09:04;;;;;;;4.88;1.88;;;;;;;-1.58;45.13;102765.31;5042405;28;20028;-70
2021/03/05 07:11:41;;;;;;;5.68;1.67;;;;;;;-1.03;45.13;102771.81;5045293;28;20037;-69
2021/03/05 07:14:09;;;;;;;6.07;0.55;;;;;;;1.81;40.64;102768.25;5043843;28;20068;-69
2021/03/05 07:16:48;;;;;;;1.30;0.40;;;;;;;4.87;33.52;102765.94;5030422;28;20028;-70
2021/03/05 07:19:21;;;;;;;8.82;0.68;;;;;;;7.87;28.33;102772.75;5041611;28;20040;-70
2021/03/05 07:21:49;;;;;;;1.30;0.30;;;;;;;10.14;24.22;102770.38;5038798;28;20037;-70
2021/03/05 07:24:17;;;;;;;2.45;0.70;;;;;;;10.85;23.18;102781.06;5042969;28;20055;-70
2021/03/05 07:26:44;;;;;;;2.28;0.70;;;;;;;11.10;23.07;102779.03;5040477;28;20029;-70
2021/03/05 07:29:45;;;;;;;2.38;1.00;;;;;;;11.95;21.47;102780.53;5038544;28;20037;-70
2021/03/05 07:32:34;;;;;;;1.52;0.50;;;;;;;11.41;22.09;102779.50;5024401;28;20108;-70
2021/03/05 07:35:03;;;;;;;2.25;1.08;;;;;;;12.25;21.10;102787.91;5039256;28;20660;-69
2021/03/05 07:37:46;;;;;;;2.40;0.73;;;;;;;13.67;20.64;102785.19;5045028;28;20032;-70
2021/03/05 07:40:14;;;;;;;3.50;0.60;;;;;;;14.71;18.54;102780.00;5041024;28;20032;-69
2021/03/05 07:42:40;;;;;;;1.98;0.52;;;;;;;14.98;18.33;102788.03;5038714;28;20041;-70
2021/03/05 07:45:07;;;;;;;1.70;0.77;;;;;;;15.53;17.62;102790.84;5045703;28;20036;-70
2021/03/05 07:47:34;;;;;;;1.38;0.52;;;;;;;15.88;16.97;102797.63;5025591;28;20041;-70
2021/03/05 07:50:02;;;;;;;3.47;0.43;;;;;;;16.17;17.11;102791.44;5045645;28;20051;-71
2021/03/05 07:52:28;;;;;;;8.43;0.50;;;;;;;15.99;17.61;102795.53;5042203;28;20113;-70
2021/03/05 07:54:54;;;;;;;3.00;1.20;;;;;;;15.83;17.44;102799.56;5045913;28;20037;-70
2021/03/05 07:57:19;;;;;;;4.80;0.60;;;;;;;15.48;17.73;102798.91;5046166;28;20032;-69
2021/03/05 07:59:47;;;;;;;3.40;0.30;;;;;;;15.57;17.67;102801.25;5046542;28;20124;-70
2021/03/05 08:02:13;;;;;;;6.18;0.52;;;;;;;14.71;18.44;102802.81;5046743;28;20120;-70
2021/03/05 08:07:25;;;;;;;3.75;0.40;;;;;;;15.64;17.93;102811.56;5045796;28;20049;-70
2021/03/05 08:09:51;;;;;;;1.00;0.22;;;;;;;15.52;18.02;102812.81;5047033;28;20041;-70
2021/03/05 08:12:31;;;;;;;1.48;0.20;;;;;;;15.26;19.13;102813.59;5046677;28;20044;-70
2021/03/05 08:15:09;;;;;;;2.47;0.55;;;;;;;15.99;17.36;102808.72;5047132;28;20064;-69
2021/03/05 08:17:46;;;;;;;3.80;0.30;;;;;;;15.26;18.87;102810.94;5060235;28;20076;-70
2021/03/05 08:20:18;;;;;;;0.80;0.20;;;;;;;14.85;18.76;102826.13;5042496;28;20028;-70
2021/03/05 08:22:59;;;;;;;2.22;0.45;;;;;;;15.06;18.43;102822.91;5042590;28;20083;-69
2021/03/05 08:25:33;;;;;;;2.25;0.30;;;;;;;14.80;19.21;102841.19;5046828;28;20041;-70
2021/03/05 08:28:00;;;;;;;4.85;0.22;;;;;;;15.03;19.03;102833.50;5028588;28;20481;-70
2021/03/05 08:30:28;;;;;;;3.28;0.30;;;;;;;14.58;18.91;102839.13;5046412;28;20029;-70
2021/03/05 08:32:58;;;;;;;0.60;0.10;;;;;;;14.66;19.53;102842.41;5043138;28;20038;-70
2021/03/05 08:35:30;;;;;;;2.25;0.45;;;;;;;15.17;18.87;102828.75;5048309;28;20344;-70
2021/03/05 08:38:08;;;;;;;4.65;0.17;;;;;;;14.72;19.68;102837.00;5060675;28;20029;-70
2021/03/05 08:40:35;;;;;;;1.17;0.10;;;;;;;14.60;19.82;102836.44;5039025;28;20029;-70
2021/03/05 08:43:10;;;;;;;2.88;0.20;;;;;;;14.29;20.28;102840.69;5043334;28;20077;-69
2021/03/05 08:45:46;;;;;;;1.10;0.10;;;;;;;13.71;20.55;102836.78;5027155;28;20479;-69
2021/03/05 08:48:15;;;;;;;0.50;0.10;;;;;;;13.58;19.87;102843.19;5045952;28;20029;-70
2021/03/05 08:50:42;;;;;;;0.95;0.10;;;;;;;12.98;20.66;102847.88;5045316;28;20052;-72
2021/03/05 08:53:11;;;;;;;8.90;5.35;;;;;;;12.90;20.48;102858.50;5049979;28;20120;-70
2021/03/05 08:55:42;;;;;;;0.93;0.15;;;;;;;12.47;20.86;102859.22;5032316;28;20029;-70
2021/03/05 08:58:08;;;;;;;0.52;0.10;;;;;;;11.00;22.42;102859.41;5048916;28;20036;-70
2021/03/05 09:00:35;;;;;;;3.58;0.20;;;;;;;11.06;23.34;102853.22;5045692;28;20037;-71
2021/03/05 09:03:13;;;;;;;1.02;0.20;;;;;;;10.34;22.69;102859.06;5043323;28;20089;-69
2021/03/05 09:05:47;;;;;;;0.88;0.10;;;;;;;9.39;24.31;102863.91;5041773;28;20029;-70
2021/03/05 09:08:14;;;;;;;1.48;0.10;;;;;;;9.26;24.56;102869.16;5057276;28;20060;-71
2021/03/05 09:10:48;;;;;;;1.58;0.10;;;;;;;8.28;25.47;102872.66;5040662;28;20040;-69
2021/03/05 09:13:16;;;;;;;0.50;0.10;;;;;;;8.57;25.21;102864.88;5042049;28;20040;-70
2021/03/05 09:15:47;;;;;;;1.15;0.10;;;;;;;8.11;25.54;102863.09;5043101;28;20108;-70
2021/03/05 09:18:16;;;;;;;1.17;0.22;;;;;;;8.43;25.81;102871.81;5043603;28;20067;-71
2021/03/05 09:20:52;;;;;;;3.92;0.10;;;;;;;7.82;27.53;102869.94;5037972;28;20028;-71
2021/03/05 09:23:38;;;;;;;0.45;0.08;;;;;;;7.51;25.89;102872.38;5042155;28;20724;-69
2021/03/05 09:26:15;;;;;;;0.68;0.10;;;;;;;8.02;25.48;102881.28;5042305;28;20017;-70
2021/03/05 09:28:43;;;;;;;1.75;0.20;;;;;;;8.12;25.92;102875.22;5046762;28;20123;-70
2021/03/05 09:31:14;;;;;;;6.60;0.13;;;;;;;7.74;26.56;102878.59;5039914;28;20067;-71
2021/03/05 09:33:42;;;;;;;0.10;0.03;;;;;;;7.27;25.72;102888.72;5039732;28;20040;-69
2021/03/05 09:36:07;;;;;;;1.27;0.00;;;;;;;7.58;25.14;102889.81;5043404;28;20075;-70
2021/03/05 09:38:34;;;;;;;0.20;0.08;;;;;;;7.47;25.12;102889.72;5041729;28;20051;-70
2021/03/05 09:41:23;;;;;;;0.93;0.20;;;;;;;7.97;24.78;102893.41;5041788;28;20723;-72
2021/03/05 09:44:01;;;;;;;0.90;0.10;;;;;;;8.35;24.89;102898.72;5048549;28;20037;-71
2021/03/05 09:46:29;;;;;;;1.45;0.15;;;;;;;8.67;24.53;102899.63;5044709;28;20120;-70
2021/03/05 09:48:56;;;;;;;3.80;0.32;;;;;;;8.18;24.74;102902.16;5027385;28;20075;-70
2021/03/05 09:51:23;;;;;;;2.67;0.20;;;;;;;7.93;25.43;102907.28;5044475;28;20025;-71
2021/03/05 09:53:55;;;;;;;1.02;0.10;;;;;;;8.12;25.28;102914.31;5026201;28;20078;-70
2021/03/05 09:56:26;;;;;;;0.73;0.10;;;;;;;7.94;25.15;102914.25;5039947;28;20025;-72
2021/03/05 09:59:00;;;;;;;0.20;0.00;;;;;;;7.99;25.41;102915.13;5024744;28;20096;-69
2021/03/05 10:01:27;;;;;;;13.93;0.43;;;;;;;7.98;25.10;102910.78;5039973;28;20029;-71
2021/03/05 10:03:54;;;;;;;0.98;0.47;;;;;;;7.65;26.03;102920.19;5041350;28;20048;-70
2021/03/05 10:06:19;;;;;;;2.13;0.20;;;;;;;8.07;25.10;102917.75;5037431;28;20048;-70
2021/03/05 10:08:45;;;;;;;3.38;0.05;;;;;;;8.21;25.74;102929.09;5036799;28;20028;-70
2021/03/05 10:11:13;;;;;;;1.10;0.13;;;;;;;8.35;24.67;102926.50;5043339;28;20043;-70
2021/03/05 10:13:46;;;;;;;0.05;0.00;;;;;;;8.03;25.35;102916.88;5043368;28;20025;-70
2021/03/05 10:16:19;;;;;;;3.03;0.10;;;;;;;8.02;24.48;102922.94;5042242;28;20738;-71
2021/03/05 10:18:47;;;;;;;0.00;0.00;;;;;;;7.98;24.45;102931.63;5039170;28;20033;-69
2021/03/05 10:21:15;;;;;;;1.80;0.10;;;;;;;7.69;23.74;102929.75;5040903;28;20033;-71
2021/03/05 10:23:42;;;;;;;1.27;0.00;;;;;;;7.82;24.23;102928.06;5022362;28;20102;-71
2021/03/05 10:26:20;;;;;;;0.73;0.10;;;;;;;8.16;23.89;102925.59;5042307;28;20044;-70
2021/03/05 10:28:52;;;;;;;0.13;0.05;;;;;;;7.91;24.01;102924.63;5039483;28;20044;-70
2021/03/05 10:31:18;;;;;;;1.55;0.10;;;;;;;8.44;24.49;102934.34;5044004;28;20087;-71
2021/03/05 10:33:44;;;;;;;0.75;0.10;;;;;;;8.17;24.62;102936.88;5040227;28;20029;-70
2021/03/05 10:36:12;;;;;;;0.88;0.10;;;;;;;7.89;24.51;102941.97;5040522;28;20691;-70
2021/03/05 10:38:42;;;;;;;2.75;0.08;;;;;;;8.05;25.74;102938.59;5040396;28;20112;-70
2021/03/05 10:41:09;;;;;;;0.47;0.35;;;;;;;8.13;25.58;102936.00;5041649;28;20112;-70
2021/03/05 10:43:36;;;;;;;1.13;0.10;;;;;;;8.42;25.52;102943.03;5028546;28;20032;-71
2021/03/05 10:46:03;;;;;;;2.78;0.10;;;;;;;8.34;25.70;102950.84;5043569;28;20028;-71
2021/03/05 10:48:29;;;;;;;1.42;0.10;;;;;;;7.07;26.31;102951.00;5024714;28;20079;-71
2021/03/05 10:50:55;;;;;;;0.40;0.03;;;;;;;6.92;26.80;102954.34;5041609;28;20021;-70
2021/03/05 10:53:20;;;;;;;1.20;0.10;;;;;;;7.12;27.44;102949.31;5043797;28;20033;-70
2021/03/05 10:55:46;;;;;;;5.00;0.10;;;;;;;7.26;27.40;102950.25;5041518;28;20096;-70
2021/03/05 10:58:12;;;;;;;1.67;0.10;;;;;;;8.38;26.36;102956.91;5044682;28;20035;-70
2021/03/05 11:00:37;;;;;;;2.03;0.28;;;;;;;8.17;25.90;102957.72;5043062;28;20056;-69
2021/03/05 11:03:03;;;;;;;2.92;0.10;;;;;;;7.39;27.64;102955.56;5042535;28;20036;-70
2021/03/05 11:05:28;;;;;;;1.10;0.30;;;;;;;6.85;28.07;102966.41;5038370;28;20067;-71
2021/03/05 11:07:54;;;;;;;1.52;0.10;;;;;;;6.97;27.34;102967.38;5025342;28;20030;-71
2021/03/05 11:10:20;;;;;;;0.08;0.00;;;;;;;7.18;27.14;102970.16;5041931;28;20029;-69
2021/03/05 11:12:47;;;;;;;0.88;0.10;;;;;;;7.52;26.02;102966.06;5039489;28;20037;-70
2021/03/05 11:15:15;;;;;;;2.80;0.10;;;;;;;8.26;24.62;102970.78;5040869;28;20037;-70
2021/03/05 11:17:41;;;;;;;1.08;0.10;;;;;;;9.05;24.86;102977.00;5041413;28;20041;-69
2021/03/05 11:20:07;;;;;;;3.92;0.30;;;;;;;9.27;25.22;102970.91;5043729;28;20036;-70
2021/03/05 11:22:33;;;;;;;0.93;0.13;;;;;;;9.23;24.33;102971.81;5022188;28;20048;-70
2021/03/05 11:24:59;;;;;;;2.95;0.25;;;;;;;8.65;22.34;102966.50;5025205;28;20025;-70
2021/03/05 11:27:24;;;;;;;0.98;0.08;;;;;;;8.72;22.86;102970.94;5021598;28;20428;-70
2021/03/05 11:29:50;;;;;;;0.70;0.20;;;;;;;7.99;23.17;102990.66;5042475;28;20060;-70
2021/03/05 11:32:16;;;;;;;0.70;0.03;;;;;;;7.90;24.27;102985.41;5041281;28;20057;-70
2021/03/05 11:34:43;;;;;;;0.95;0.17;;;;;;;8.40;24.71;102976.88;5045016;28;20036;-70
2021/03/05 11:37:09;;;;;;;1.27;0.10;;;;;;;7.59;25.78;102974.81;5026790;28;20068;-71